Time;durP1;ratioP1;P1;durP2;ratioP2;P2;SDS_P1;SDS_P2;PMS_P1;PMS_P2;Temp;Humidity;BMP_temperature;BMP_pressure;BME280_temperature;BME280_humidity;BME280_pressure;Samples;Min_cycle;Max_cycle;Signal;HPM_P1;HPM_P2
2023/01/03 00:01:36;;;;;;;38.83;25.80;;;20.50;65.50;;;;;;5092497;28;20477;-69
2023/01/03 00:04:03;;;;;;;47.65;27.67;;;20.60;65.50;;;;;;5056382;28;20074;-68
2023/01/03 00:06:32;;;;;;;42.67;28.42;;;20.50;65.40;;;;;;5092702;28;20040;-69
2023/01/03 00:09:00;;;;;;;40.20;26.42;;;20.60;65.30;;;;;;5091982;28;20059;-69
2023/01/03 00:14:17;;;;;;;39.90;25.63;;;20.60;65.10;;;;;;5083429;28;20512;-69
2023/01/03 00:16:43;;;;;;;40.25;25.65;;;20.50;64.90;;;;;;5034182;28;20037;-69
2023/01/03 00:19:11;;;;;;;41.05;26.17;;;20.40;65.00;;;;;;5051429;28;20708;-69
2023/01/03 00:21:38;;;;;;;40.63;26.02;;;20.50;65.00;;;;;;5051800;28;20453;-69
2023/01/03 00:24:05;;;;;;;37.13;25.70;;;20.50;65.10;;;;;;5051544;28;20071;-69
2023/01/03 00:26:32;;;;;;;41.63;25.45;;;20.30;65.00;;;;;;4999810;28;20110;-69
2023/01/03 00:28:58;;;;;;;36.30;25.23;;;20.30;65.10;;;;;;5051369;28;20060;-69
2023/01/03 00:31:24;;;;;;;39.13;26.67;;;20.30;65.10;;;;;;5051461;28;20025;-69
2023/01/03 00:33:51;;;;;;;40.35;27.80;;;20.30;65.00;;;;;;4999302;28;20060;-69
2023/01/03 00:36:17;;;;;;;43.25;28.83;;;20.30;65.00;;;;;;5051652;28;20422;-68
2023/01/03 00:38:43;;;;;;;45.13;26.95;;;20.30;65.00;;;;;;5051267;28;20036;-69
2023/01/03 00:41:12;;;;;;;39.00;26.88;;;20.20;64.90;;;;;;5051315;28;20025;-69
2023/01/03 00:43:41;;;;;;;41.83;28.27;;;20.30;65.10;;;;;;5051268;28;20119;-68
2023/01/03 00:46:08;;;;;;;39.95;27.30;;;20.20;64.80;;;;;;5051252;28;20029;-69
2023/01/03 00:48:35;;;;;;;44.58;28.75;;;20.20;64.60;;;;;;5051203;28;20039;-69
2023/01/03 00:51:12;;;;;;;41.03;28.27;;;20.20;64.40;;;;;;5051020;28;20047;-69
2023/01/03 00:53:39;;;;;;;48.42;28.77;;;20.20;64.30;;;;;;5051126;28;20497;-69
2023/01/03 00:56:08;;;;;;;42.95;28.60;;;20.30;64.30;;;;;;5051358;28;20036;-69
2023/01/03 00:58:35;;;;;;;43.67;28.58;;;20.20;64.20;;;;;;5051057;28;20029;-69
2023/01/03 01:01:22;;;;;;;43.38;27.98;;;20.10;64.10;;;;;;5051020;28;20032;-68
2023/01/03 01:03:52;;;;;;;42.17;27.38;;;20.10;64.10;;;;;;5033435;28;20377;-69
2023/01/03 01:06:27;;;;;;;41.53;27.83;;;20.10;64.20;;;;;;5033181;28;20041;-69
2023/01/03 01:08:54;;;;;;;40.55;27.40;;;20.00;64.10;;;;;;5050626;28;20048;-68
2023/01/03 01:11:20;;;;;;;39.38;26.38;;;20.10;64.30;;;;;;5050894;28;20033;-69
2023/01/03 01:13:47;;;;;;;35.60;24.63;;;19.90;64.20;;;;;;5050690;28;20359;-69
2023/01/03 01:16:16;;;;;;;37.70;24.67;;;20.00;64.20;;;;;;5050881;28;20028;-69
2023/01/03 01:18:44;;;;;;;34.65;25.65;;;19.90;64.20;;;;;;5050757;28;20037;-69
2023/01/03 01:21:16;;;;;;;38.60;26.15;;;19.90;64.20;;;;;;5050660;28;20043;-69
2023/01/03 01:23:43;;;;;;;41.53;27.00;;;19.90;64.20;;;;;;5050672;28;20414;-69
2023/01/03 01:26:12;;;;;;;38.58;25.85;;;20.00;63.90;;;;;;5049570;28;20032;-69
2023/01/03 01:28:39;;;;;;;36.35;25.27;;;20.00;63.90;;;;;;5050754;28;20029;-69
2023/01/03 01:31:06;;;;;;;35.90;24.13;;;20.00;63.50;;;;;;5050575;28;20028;-69
2023/01/03 01:33:33;;;;;;;37.83;25.67;;;20.00;63.50;;;;;;5050661;28;20032;-69
2023/01/03 01:36:15;;;;;;;39.20;26.48;;;19.90;63.40;;;;;;5050241;28;20450;-69
2023/01/03 01:38:41;;;;;;;35.33;23.45;;;19.90;63.40;;;;;;5050352;28;20025;-69
2023/01/03 01:41:08;;;;;;;37.42;24.15;;;19.90;63.40;;;;;;5065578;28;20082;-70
2023/01/03 01:46:24;;;;;;;32.30;20.83;;;19.90;63.40;;;;;;5070472;28;20037;-69
2023/01/03 01:48:56;;;;;;;33.60;22.77;;;19.80;63.60;;;;;;5070341;28;20508;-69
2023/01/03 01:51:24;;;;;;;31.15;21.45;;;19.80;63.50;;;;;;5070204;28;20440;-69
2023/01/03 01:53:53;;;;;;;33.17;23.60;;;19.90;63.40;;;;;;5034592;28;20080;-69
2023/01/03 01:56:24;;;;;;;34.70;22.67;;;19.80;63.10;;;;;;5070477;28;20033;-68
2023/01/03 01:58:52;;;;;;;35.58;23.33;;;19.80;63.00;;;;;;5017924;28;20048;-69
2023/01/03 02:01:20;;;;;;;35.25;23.20;;;19.80;62.90;;;;;;5069757;28;20795;-69
2023/01/03 02:03:55;;;;;;;33.42;22.25;;;19.80;62.90;;;;;;5069786;28;20124;-68
2023/01/03 02:06:22;;;;;;;33.28;21.88;;;19.90;62.80;;;;;;5070287;28;20420;-69
2023/01/03 02:08:48;;;;;;;30.30;21.17;;;19.90;62.60;;;;;;5069985;28;20052;-69
2023/01/03 02:11:23;;;;;;;40.72;24.10;;;19.80;62.40;;;;;;5054239;28;20064;-69
2023/01/03 02:14:01;;;;;;;33.55;23.83;;;19.90;62.50;;;;;;5049631;28;20512;-69
2023/01/03 02:16:47;;;;;;;32.10;22.10;;;19.90;62.50;;;;;;5049208;28;20119;-69
2023/01/03 02:19:15;;;;;;;34.47;23.00;;;20.00;62.30;;;;;;5049290;28;20033;-69
2023/01/03 02:22:03;;;;;;;30.88;20.77;;;19.90;62.20;;;;;;5049682;28;20037;-69
2023/01/03 02:24:53;;;;;;;33.78;24.08;;;20.00;62.10;;;;;;5049590;28;20033;-69
2023/01/03 02:27:51;;;;;;;34.13;22.25;;;20.00;62.00;;;;;;5050246;28;20041;-68
2023/01/03 02:30:32;;;;;;;28.52;20.48;;;19.90;61.90;;;;;;4949169;28;20417;-69
2023/01/03 02:33:24;;;;;;;32.03;20.60;;;20.00;61.80;;;;;;4949571;29;20373;-68
2023/01/03 02:36:02;;;;;;;34.75;23.95;;;20.00;61.70;;;;;;4949469;28;20038;-69
2023/01/03 02:38:27;;;;;;;36.75;23.88;;;20.00;61.60;;;;;;4951980;28;20039;-69
2023/01/03 02:41:21;;;;;;;38.03;25.17;;;19.90;61.80;;;;;;4952862;28;20047;-69
2023/01/03 02:43:57;;;;;;;33.20;24.08;;;19.90;61.90;;;;;;4952882;28;20044;-69
2023/01/03 02:46:30;;;;;;;35.25;23.48;;;19.80;61.70;;;;;;4952848;28;20583;-69
2023/01/03 02:49:04;;;;;;;34.28;24.05;;;19.90;62.10;;;;;;4968599;28;20732;-69
2023/01/03 02:51:45;;;;;;;37.03;25.42;;;19.70;61.90;;;;;;4952690;28;20054;-69
2023/01/03 02:54:17;;;;;;;33.60;23.15;;;19.80;61.80;;;;;;4952710;28;20047;-69
2023/01/03 02:56:50;;;;;;;37.07;25.80;;;19.80;62.10;;;;;;4952820;28;20043;-69
2023/01/03 02:59:18;;;;;;;;;;;19.80;62.10;;;;;;4952991;29;20082;-68
2023/01/03 03:01:48;;;;;;;38.42;24.90;;;19.80;62.20;;;;;;4936596;29;19914;-69
2023/01/03 03:04:14;;;;;;;34.08;24.52;;;19.60;62.20;;;;;;4936291;28;20043;-69
2023/01/03 03:07:13;;;;;;;34.70;23.98;;;19.70;62.20;;;;;;5001824;28;20045;-69
2023/01/03 03:15:14;;;;;;;32.97;23.33;;;19.80;61.60;;;;;;5053087;28;20124;-69
2023/01/03 03:17:43;;;;;;;34.40;23.95;;;19.70;61.50;;;;;;5053087;28;20348;-69
2023/01/03 03:26:03;;;;;;;36.67;23.33;;;19.70;61.70;;;;;;5052589;28;20424;-69
2023/01/03 03:28:35;;;;;;;31.67;23.65;;;19.60;61.70;;;;;;5052941;28;20211;-69
2023/01/03 03:31:21;;;;;;;36.03;24.10;;;19.60;61.70;;;;;;5052461;28;20040;-69
2023/01/03 03:33:59;;;;;;;36.05;21.48;;;19.70;61.90;;;;;;5034892;28;20328;-69
2023/01/03 03:36:33;;;;;;;35.47;21.88;;;19.60;61.90;;;;;;5034825;28;20037;-69
2023/01/03 03:39:02;;;;;;;39.45;22.95;;;19.50;61.90;;;;;;5052381;28;20037;-69
2023/01/03 03:47:38;;;;;;;29.17;21.70;;;19.50;61.40;;;;;;5092791;28;20020;-68
2023/01/03 03:50:15;;;;;;;38.33;23.27;;;19.50;61.20;;;;;;5073763;28;20435;-68
2023/01/03 03:52:45;;;;;;;37.00;25.52;;;19.50;61.00;;;;;;5092589;28;20028;-69
2023/01/03 03:55:16;;;;;;;34.95;23.95;;;19.50;60.80;;;;;;5092551;28;20054;-69
2023/01/03 03:57:53;;;;;;;31.23;23.75;;;19.50;60.90;;;;;;5092583;28;20123;-69
2023/01/03 04:00:24;;;;;;;33.33;24.17;;;19.50;61.00;;;;;;5092191;28;20453;-67
2023/01/03 04:02:51;;;;;;;31.38;23.10;;;19.40;61.00;;;;;;5092397;28;20067;-69
2023/01/03 04:05:21;;;;;;;33.50;24.17;;;19.50;61.20;;;;;;5092444;28;20047;-69
2023/01/03 04:07:47;;;;;;;33.97;24.00;;;19.40;61.20;;;;;;5092373;28;20546;-69
2023/01/03 04:10:18;;;;;;;36.17;23.67;;;19.40;61.30;;;;;;5091861;28;20134;-68
2023/01/03 04:12:47;;;;;;;33.85;24.85;;;19.40;61.30;;;;;;5073976;28;20106;-69
2023/01/03 04:15:13;;;;;;;35.53;23.20;;;19.40;61.20;;;;;;5060541;28;20431;-68
2023/01/03 04:17:39;;;;;;;31.23;22.73;;;19.40;61.30;;;;;;5051715;28;20401;-69
2023/01/03 04:20:06;;;;;;;40.65;24.73;;;19.30;61.30;;;;;;5051693;28;20111;-68
2023/01/03 04:22:32;;;;;;;36.03;22.40;;;19.20;61.00;;;;;;5052065;28;20041;-69
2023/01/03 04:24:58;;;;;;;32.88;23.25;;;19.40;61.00;;;;;;5051766;28;20041;-68
2023/01/03 04:27:24;;;;;;;38.00;23.13;;;19.40;60.70;;;;;;5051756;28;20037;-68
2023/01/03 04:29:50;;;;;;;32.55;22.85;;;19.40;60.50;;;;;;5051106;28;20037;-68
2023/01/03 04:32:16;;;;;;;35.03;23.52;;;19.50;60.50;;;;;;5051931;28;20033;-69
2023/01/03 04:34:42;;;;;;;35.20;22.92;;;19.50;60.50;;;;;;5033723;28;20033;-69
2023/01/03 04:37:08;;;;;;;31.30;22.98;;;19.40;60.30;;;;;;5051618;28;20029;-69
2023/01/03 04:39:34;;;;;;;32.38;23.50;;;19.40;60.40;;;;;;5051208;28;20542;-69
2023/01/03 04:42:00;;;;;;;31.27;22.65;;;19.30;60.50;;;;;;5051478;28;20033;-69
2023/01/03 04:44:27;;;;;;;33.47;24.65;;;19.30;60.60;;;;;;5051451;28;20060;-69
2023/01/03 04:46:53;;;;;;;33.63;23.48;;;19.30;60.80;;;;;;5051452;28;20075;-69
2023/01/03 04:49:19;;;;;;;32.42;23.27;;;19.30;60.80;;;;;;5051532;28;20033;-69
2023/01/03 04:51:45;;;;;;;34.78;24.10;;;19.30;60.90;;;;;;5051324;28;20063;-69
2023/01/03 04:54:11;;;;;;;35.15;23.48;;;19.30;60.80;;;;;;5051227;28;20049;-68
2023/01/03 04:56:37;;;;;;;34.53;22.67;;;19.30;60.70;;;;;;5050402;28;20171;-69
2023/01/03 04:59:04;;;;;;;37.33;23.30;;;19.30;60.50;;;;;;5050075;28;20029;-70
2023/01/03 05:01:30;;;;;;;37.00;24.27;;;19.30;60.30;;;;;;5049833;28;20041;-70
2023/01/03 05:03:58;;;;;;;35.05;23.02;;;19.30;60.10;;;;;;5032189;28;20040;-69
2023/01/03 05:06:25;;;;;;;28.98;21.63;;;19.30;60.00;;;;;;5049671;28;20036;-69
2023/01/03 05:08:51;;;;;;;28.60;19.38;;;19.40;60.00;;;;;;5015022;28;20120;-69
2023/01/03 05:11:17;;;;;;;30.75;20.48;;;19.60;60.20;;;;;;5050565;28;20711;-69
2023/01/03 05:13:43;;;;;;;31.30;20.92;;;19.80;59.20;;;;;;5050923;28;20036;-69
2023/01/03 05:16:13;;;;;;;33.03;24.25;;;20.00;58.40;;;;;;5050948;28;20017;-75
2023/01/03 05:18:41;;;;;;;33.13;23.08;;;20.10;57.80;;;;;;5050575;28;20033;-70
2023/01/03 05:26:44;;;;;;;30.05;18.30;;;20.40;63.20;;;;;;5050576;28;20481;-69
2023/01/03 05:29:11;;;;;;;30.13;21.92;;;20.80;64.10;;;;;;5050645;28;20037;-70
2023/01/03 05:31:37;;;;;;;28.35;19.95;;;21.00;62.80;;;;;;5048294;28;20556;-72
2023/01/03 05:34:03;;;;;;;27.02;18.17;;;21.10;60.60;;;;;;5049634;28;20122;-71
2023/01/03 05:36:29;;;;;;;30.48;20.67;;;21.10;55.60;;;;;;5049454;28;20043;-70
2023/01/03 05:38:56;;;;;;;34.42;24.05;;;21.10;54.00;;;;;;5049171;28;20037;-70
2023/01/03 05:44:06;;;;;;;36.25;24.58;;;20.80;51.70;;;;;;5019940;28;20125;-68
2023/01/03 05:46:32;;;;;;;32.42;22.73;;;20.60;51.70;;;;;;5071771;28;20063;-68
2023/01/03 05:48:58;;;;;;;36.88;23.95;;;20.50;52.90;;;;;;5070745;28;20052;-68
2023/01/03 05:51:24;;;;;;;34.25;24.67;;;20.30;53.70;;;;;;5089697;28;20036;-69
2023/01/03 05:53:50;;;;;;;39.35;26.00;;;20.20;54.50;;;;;;5090569;28;20089;-69
2023/01/03 05:56:16;;;;;;;37.75;26.63;;;20.10;55.30;;;;;;5090702;28;20020;-69
2023/01/03 05:58:43;;;;;;;43.05;29.60;;;20.20;56.10;;;;;;5090578;28;20039;-69
2023/01/03 06:01:10;;;;;;;34.45;24.85;;;20.00;53.60;;;;;;5090287;28;20081;-69
2023/01/03 06:03:36;;;;;;;34.72;23.27;;;20.20;57.90;;;;;;5090619;28;20127;-69
2023/01/03 06:06:05;;;;;;;34.03;23.13;;;20.40;60.20;;;;;;5059495;28;20025;-69
2023/01/03 06:08:51;;;;;;;42.22;32.85;;;20.70;60.80;;;;;;5050444;28;20044;-68
2023/01/03 06:11:17;;;;;;;41.42;33.28;;;20.90;53.80;;;;;;4988253;28;20046;-69
2023/01/03 06:13:44;;;;;;;40.55;33.42;;;20.80;52.40;;;;;;4991729;28;20038;-68
2023/01/03 06:19:00;;;;;;;45.00;34.35;;;20.70;50.80;;;;;;4992345;28;20030;-68
2023/01/03 06:21:27;;;;;;;46.22;34.08;;;20.70;51.60;;;;;;4975642;28;20066;-69
2023/01/03 06:23:53;;;;;;;49.42;35.42;;;20.70;53.30;;;;;;4975842;28;20117;-70
2023/01/03 06:26:22;;;;;;;46.65;34.80;;;20.70;53.30;;;;;;4992036;28;20180;-69
2023/01/03 06:28:49;;;;;;;43.03;30.13;;;20.70;52.90;;;;;;4991958;28;20388;-70
2023/01/03 06:31:15;;;;;;;41.03;28.08;;;20.70;52.70;;;;;;4991546;28;20038;-69
2023/01/03 06:33:41;;;;;;;36.45;26.40;;;20.70;51.20;;;;;;4991918;28;20045;-69
2023/01/03 06:36:11;;;;;;;41.13;28.08;;;20.60;51.10;;;;;;4991904;28;20503;-71
2023/01/03 06:38:38;;;;;;;37.53;26.40;;;20.60;52.40;;;;;;4992071;28;20034;-72
2023/01/03 06:41:04;;;;;;;34.17;27.75;;;20.60;51.60;;;;;;4991764;28;20549;-69
2023/01/03 06:43:30;;;;;;;34.90;24.63;;;20.60;51.50;;;;;;5053922;28;20112;-70
2023/01/03 06:54:24;;;;;;;43.75;29.52;;;20.70;60.70;;;;;;5053479;28;20032;-68
2023/01/03 06:56:52;;;;;;;24.92;14.88;;;20.80;61.80;;;;;;5019283;28;20029;-74
2023/01/03 06:59:18;;;;;;;29.95;17.10;;;20.80;62.70;;;;;;5053277;28;20436;-76
2023/01/03 07:01:46;;;;;;;28.20;19.13;;;21.00;61.40;;;;;;5053172;28;20083;-75
2023/01/03 07:04:12;;;;;;;33.90;22.05;;;21.20;59.70;;;;;;5053521;28;20037;-69
2023/01/03 07:06:39;;;;;;;33.17;21.55;;;21.20;58.00;;;;;;5053448;28;20036;-71
2023/01/03 07:09:05;;;;;;;36.00;22.48;;;21.20;57.00;;;;;;5053364;28;20106;-69
2023/01/03 07:11:31;;;;;;;32.80;22.05;;;21.30;56.40;;;;;;5051489;28;20033;-70
2023/01/03 07:13:57;;;;;;;32.63;20.05;;;21.40;56.10;;;;;;5050780;28;20033;-70
2023/01/03 07:16:25;;;;;;;33.90;22.40;;;21.40;55.90;;;;;;5050696;28;20068;-68
2023/01/03 07:18:52;;;;;;;36.33;24.02;;;21.40;55.60;;;;;;5069316;28;20035;-71
2023/01/03 07:21:18;;;;;;;36.30;20.55;;;21.50;55.40;;;;;;5055808;28;20627;-69
2023/01/03 07:23:44;;;;;;;44.53;29.48;;;21.50;55.40;;;;;;5051598;28;20049;-70
2023/01/03 07:26:10;;;;;;;46.15;32.15;;;21.60;55.10;;;;;;5057212;28;20024;-69
2023/01/03 07:28:36;;;;;;;43.72;30.83;;;21.50;54.80;;;;;;5030058;28;20049;-69
2023/01/03 07:31:04;;;;;;;41.33;29.35;;;21.40;55.50;;;;;;5030291;28;20376;-70
2023/01/03 07:33:32;;;;;;;42.40;28.95;;;21.20;56.50;;;;;;5030097;28;20106;-69
2023/01/03 07:36:03;;;;;;;39.55;27.88;;;21.10;57.60;;;;;;5030263;28;20033;-68
2023/01/03 07:38:29;;;;;;;44.65;29.10;;;20.90;58.30;;;;;;5013778;28;20048;-68
2023/01/03 07:40:56;;;;;;;41.70;27.45;;;20.90;59.10;;;;;;5030111;28;20086;-68
2023/01/03 07:43:37;;;;;;;39.78;29.30;;;20.80;59.70;;;;;;5029570;28;20483;-72
2023/01/03 07:46:17;;;;;;;41.30;29.27;;;20.90;60.10;;;;;;5030017;28;20041;-68
2023/01/03 07:48:44;;;;;;;40.03;28.23;;;20.90;60.60;;;;;;5030204;28;20037;-71
2023/01/03 07:51:12;;;;;;;42.53;29.65;;;20.80;61.00;;;;;;5032635;28;20029;-68
2023/01/03 07:53:39;;;;;;;45.50;32.00;;;20.70;61.40;;;;;;5029877;28;20095;-70
2023/01/03 07:56:13;;;;;;;42.83;30.20;;;20.90;61.90;;;;;;5013473;28;20044;-68
2023/01/03 07:58:41;;;;;;;45.72;31.38;;;20.80;62.00;;;;;;5029627;28;20072;-71
2023/01/03 08:01:13;;;;;;;42.65;28.52;;;20.70;62.00;;;;;;5013024;28;20025;-72
2023/01/03 08:03:39;;;;;;;38.80;29.23;;;20.70;62.20;;;;;;5029671;28;20128;-72
2023/01/03 08:06:08;;;;;;;44.35;29.00;;;20.70;62.60;;;;;;5041196;28;20033;-69
2023/01/03 08:08:34;;;;;;;43.30;28.65;;;20.60;62.80;;;;;;5068556;28;20094;-70
2023/01/03 08:13:45;;;;;;;47.60;30.25;;;20.60;64.80;;;;;;5071839;28;20059;-68
2023/01/03 08:16:14;;;;;;;40.80;28.40;;;20.70;65.50;;;;;;5071791;28;20037;-70
2023/01/03 08:18:41;;;;;;;43.42;27.50;;;20.70;64.90;;;;;;5071783;28;20060;-70
2023/01/03 08:21:10;;;;;;;42.08;27.02;;;20.80;63.90;;;;;;5071868;28;20043;-70
2023/01/03 08:23:36;;;;;;;37.58;26.00;;;20.90;64.00;;;;;;5071870;28;20078;-72
2023/01/03 08:26:08;;;;;;;35.38;25.15;;;20.80;63.80;;;;;;5048661;28;20029;-70
2023/01/03 08:28:35;;;;;;;;;;;20.90;63.70;;;;;;5052387;28;20060;-71
2023/01/03 08:31:14;;;;;;;32.45;22.33;;;20.90;63.60;;;;;;5052026;28;19909;-73
2023/01/03 08:33:53;;;;;;;30.50;26.17;;;21.00;63.70;;;;;;5090201;28;20050;-70
2023/01/03 08:36:20;;;;;;;29.80;24.55;;;21.50;66.00;;;;;;5091507;28;20330;-69
2023/01/03 08:39:12;;;;;;;30.80;24.15;;;21.80;58.60;;;;;;5055834;28;20032;-70
2023/01/03 08:41:44;;;;;;;28.90;22.70;;;22.10;58.80;;;;;;5091828;28;20036;-68
2023/01/03 08:44:10;;;;;;;27.00;23.13;;;22.50;58.90;;;;;;5091049;28;20044;-72
2023/01/03 08:46:39;;;;;;;30.23;23.52;;;22.80;50.40;;;;;;5090758;28;20031;-74
2023/01/03 08:49:06;;;;;;;27.73;23.80;;;22.90;47.00;;;;;;5072036;28;20501;-71
2023/01/03 08:51:32;;;;;;;24.33;21.48;;;22.70;47.00;;;;;;5053715;28;20385;-71
2023/01/03 08:53:58;;;;;;;29.98;22.25;;;22.60;47.10;;;;;;5071016;28;20040;-71
2023/01/03 08:56:24;;;;;;;34.58;22.33;;;22.70;47.30;;;;;;5069839;28;20032;-70
2023/01/03 08:58:50;;;;;;;31.42;23.50;;;22.60;47.50;;;;;;5069977;28;20386;-71
2023/01/03 09:01:16;;;;;;;28.20;25.05;;;22.70;49.60;;;;;;5001964;28;20066;-72
2023/01/03 09:03:42;;;;;;;35.50;24.42;;;22.80;58.70;;;;;;5070860;28;20134;-72
2023/01/03 09:06:08;;;;;;;28.50;23.25;;;22.80;53.00;;;;;;5071126;28;20040;-68
2023/01/03 09:08:34;;;;;;;32.33;25.17;;;22.70;50.20;;;;;;5030473;28;20490;-69
2023/01/03 09:11:05;;;;;;;34.00;24.85;;;22.70;48.50;;;;;;5068287;28;20044;-73
2023/01/03 09:13:31;;;;;;;29.20;23.75;;;22.80;59.50;;;;;;5051969;28;20041;-73
2023/01/03 09:16:05;;;;;;;32.70;24.98;;;22.90;48.00;;;;;;5068116;28;20093;-71
2023/01/03 09:18:31;;;;;;;34.67;25.30;;;22.80;47.90;;;;;;5067973;28;20094;-71
2023/01/03 09:20:57;;;;;;;33.83;27.20;;;22.80;47.90;;;;;;5067885;28;20036;-73
2023/01/03 09:23:23;;;;;;;36.80;27.20;;;22.90;49.10;;;;;;5068081;28;20044;-71
2023/01/03 09:25:49;;;;;;;32.78;25.63;;;22.90;48.90;;;;;;5068225;28;20036;-72
2023/01/03 09:28:15;;;;;;;36.65;25.48;;;22.90;49.10;;;;;;5068241;28;20071;-74
2023/01/03 09:30:41;;;;;;;33.42;24.50;;;22.90;46.10;;;;;;5068349;28;20036;-75
2023/01/03 09:33:09;;;;;;;33.08;25.23;;;22.90;47.70;;;;;;5068217;28;20093;-73
2023/01/03 09:35:36;;;;;;;33.08;25.33;;;22.90;47.40;;;;;;5068273;28;20488;-74
2023/01/03 09:38:02;;;;;;;36.30;25.88;;;22.90;46.50;;;;;;5067941;28;20075;-72
2023/01/03 09:40:37;;;;;;;38.60;24.65;;;22.90;46.50;;;;;;5070303;28;20064;-74
2023/01/03 09:43:13;;;;;;;30.67;23.77;;;22.90;45.60;;;;;;5070728;28;20102;-74
2023/01/03 09:45:43;;;;;;;32.90;25.58;;;22.90;46.40;;;;;;5086516;28;20131;-72
2023/01/03 09:48:16;;;;;;;32.65;24.45;;;23.00;50.00;;;;;;5069506;28;20492;-70
2023/01/03 09:50:44;;;;;;;21.50;15.52;;;23.10;47.70;;;;;;5086036;28;20102;-72
2023/01/03 10:05:03;;;;;;;33.45;24.55;;;23.30;49.50;;;;;;5110640;28;20085;-71
2023/01/03 10:07:34;;;;;;;33.05;25.60;;;23.30;47.20;;;;;;5110442;28;20150;-70
2023/01/03 10:10:20;;;;;;;35.08;24.30;;;23.30;46.90;;;;;;5096926;28;20048;-69
2023/01/03 10:13:08;;;;;;;33.92;24.92;;;23.30;46.90;;;;;;5071397;28;20053;-72
2023/01/03 10:15:53;;;;;;;29.63;23.20;;;23.20;46.00;;;;;;5032258;28;20393;-70
2023/01/03 10:18:56;;;;;;;29.02;22.33;;;23.20;50.50;;;;;;5049732;28;20524;-71
2023/01/03 10:21:31;;;;;;;30.80;24.13;;;23.30;50.90;;;;;;5049689;28;20545;-68
2023/01/03 10:23:58;;;;;;;31.23;23.67;;;23.60;50.90;;;;;;5049634;28;20474;-69
2023/01/03 10:26:25;;;;;;;31.05;22.38;;;23.50;52.30;;;;;;5040772;28;20104;-70
2023/01/03 10:28:52;;;;;;;33.03;25.02;;;23.50;48.20;;;;;;5070299;28;20025;-70
2023/01/03 10:31:36;;;;;;;33.03;24.13;;;23.40;50.80;;;;;;5070279;28;20032;-70
2023/01/03 10:34:04;;;;;;;29.52;23.83;;;23.60;52.50;;;;;;5069935;28;20059;-71
2023/01/03 10:36:30;;;;;;;34.42;25.90;;;23.70;51.20;;;;;;5070062;28;20115;-70
2023/01/03 10:39:07;;;;;;;30.67;25.95;;;23.60;47.10;;;;;;5070143;28;20222;-68
2023/01/03 10:41:46;;;;;;;36.40;25.40;;;23.60;46.10;;;;;;5069983;28;20052;-69
2023/01/03 10:44:24;;;;;;;35.38;26.15;;;23.60;50.10;;;;;;5069812;28;20059;-69
2023/01/03 10:46:53;;;;;;;33.85;24.95;;;23.70;56.60;;;;;;5051865;28;20690;-71
2023/01/03 10:49:21;;;;;;;30.52;24.35;;;24.00;50.90;;;;;;5034325;28;20275;-69
2023/01/03 10:52:16;;;;;;;32.35;23.83;;;24.10;47.90;;;;;;5070031;28;20064;-68
2023/01/03 10:55:11;;;;;;;35.65;23.75;;;24.00;48.30;;;;;;5069206;28;20044;-70
2023/01/03 10:57:49;;;;;;;29.50;21.42;;;23.90;48.10;;;;;;5051785;28;20036;-72
2023/01/03 11:00:33;;;;;;;34.15;22.02;;;23.90;55.60;;;;;;5073064;28;20072;-73
2023/01/03 11:03:20;;;;;;;32.72;23.25;;;23.90;57.90;;;;;;5073186;28;20076;-69
2023/01/03 11:06:08;;;;;;;34.85;22.25;;;23.90;57.80;;;;;;5085748;28;20040;-70
2023/01/03 11:08:46;;;;;;;28.77;21.38;;;23.90;57.50;;;;;;5093379;28;20032;-76
2023/01/03 11:11:32;;;;;;;34.22;20.52;;;23.80;57.30;;;;;;5093593;28;20055;-70
2023/01/03 11:14:16;;;;;;;28.80;19.15;;;23.80;57.50;;;;;;5093114;28;20032;-68
2023/01/03 11:16:42;;;;;;;33.20;20.35;;;23.90;57.60;;;;;;5075779;28;20032;-70
2023/01/03 11:19:16;;;;;;;36.05;21.70;;;23.90;57.70;;;;;;5057203;28;20048;-71
2023/01/03 11:21:45;;;;;;;29.63;21.27;;;23.90;50.60;;;;;;5093253;28;20064;-69
2023/01/03 11:24:38;;;;;;;27.15;17.95;;;23.80;49.40;;;;;;5092919;28;20089;-69
2023/01/03 11:27:27;;;;;;;26.70;18.58;;;23.90;57.90;;;;;;5078901;28;20136;-70
2023/01/03 11:30:22;;;;;;;27.08;19.50;;;23.80;58.00;;;;;;5037172;28;20047;-70
2023/01/03 11:33:11;;;;;;;25.75;18.73;;;23.70;58.10;;;;;;4971427;28;20047;-70
2023/01/03 11:35:48;;;;;;;27.73;19.13;;;23.70;58.00;;;;;;4971423;28;20064;-70
2023/01/03 11:38:14;;;;;;;26.25;17.95;;;23.70;58.10;;;;;;4971610;28;20039;-70
2023/01/03 11:40:58;;;;;;;28.38;17.83;;;23.70;58.10;;;;;;4971570;28;20484;-70
2023/01/03 11:43:34;;;;;;;28.38;18.33;;;23.70;58.10;;;;;;4971373;28;20047;-71
2023/01/03 11:46:27;;;;;;;27.30;18.15;;;23.60;58.00;;;;;;4971495;28;20035;-70
2023/01/03 11:49:20;;;;;;;25.90;18.60;;;23.70;58.40;;;;;;4971811;28;20127;-70
2023/01/03 11:52:06;;;;;;;25.42;17.50;;;23.60;58.50;;;;;;4952074;28;20386;-71
2023/01/03 11:54:55;;;;;;;24.67;17.40;;;23.60;58.50;;;;;;4951708;28;20062;-70
2023/01/03 11:57:52;;;;;;;28.20;19.05;;;23.50;58.60;;;;;;4951951;28;20093;-72
2023/01/03 12:00:40;;;;;;;30.17;18.20;;;23.60;58.60;;;;;;4951804;28;20047;-73
2023/01/03 12:03:26;;;;;;;29.38;18.48;;;23.50;58.70;;;;;;4935689;28;20056;-72
2023/01/03 12:06:12;;;;;;;35.03;19.42;;;23.50;58.50;;;;;;4950706;28;20039;-70
2023/01/03 12:09:11;;;;;;;30.20;18.60;;;23.50;58.50;;;;;;4960512;28;20130;-71
2023/01/03 12:12:17;;;;;;;28.00;18.40;;;23.40;58.70;;;;;;5070813;28;20437;-71
2023/01/03 12:14:48;;;;;;;;;;;23.40;59.00;;;;;;5072400;28;20036;-71
2023/01/03 12:17:39;;;;;;;24.15;15.93;;;23.30;59.90;;;;;;5074510;28;20447;-73
2023/01/03 12:20:20;;;;;;;20.63;15.13;;;23.30;59.20;;;;;;5071892;28;20042;-70
2023/01/03 12:23:05;;;;;;;27.98;17.50;;;23.30;59.20;;;;;;5071809;28;20036;-71
2023/01/03 12:25:36;;;;;;;26.33;16.35;;;23.30;59.20;;;;;;5071550;28;20032;-70
2023/01/03 12:28:13;;;;;;;27.83;17.67;;;23.20;59.10;;;;;;5092033;28;20095;-71
2023/01/03 12:31:18;;;;;;;48.05;25.35;;;23.20;59.30;;;;;;5092180;28;20107;-70
2023/01/03 12:34:10;;;;;;;22.73;15.93;;;23.10;59.50;;;;;;5009448;28;20041;-70
2023/01/03 12:37:08;;;;;;;22.02;14.32;;;23.10;59.20;;;;;;4970164;28;20039;-70
2023/01/03 12:39:36;;;;;;;19.75;12.52;;;23.10;59.30;;;;;;4912947;29;20048;-70
2023/01/03 12:42:46;;;;;;;23.20;12.55;;;23.00;59.00;;;;;;4928447;29;20107;-74
2023/01/03 12:45:26;;;;;;;10.77;6.13;;;23.00;59.00;;;;;;4875266;29;20053;-72
2023/01/03 12:48:06;;;;;;;11.40;6.35;;;23.10;59.00;;;;;;4875127;29;20045;-70
2023/01/03 12:50:38;;;;;;;13.02;8.27;;;23.00;58.60;;;;;;4875020;29;20052;-69
2023/01/03 12:53:15;;;;;;;10.20;6.47;;;23.00;59.00;;;;;;4875137;29;20640;-69
2023/01/03 12:55:53;;;;;;;9.23;6.97;;;23.00;58.70;;;;;;4859347;29;20102;-70
2023/01/03 12:58:38;;;;;;;11.07;7.60;;;22.90;60.00;;;;;;4890229;29;20717;-69
2023/01/03 13:01:07;;;;;;;13.40;8.43;;;22.90;61.50;;;;;;4874856;29;20132;-69
2023/01/03 13:03:45;;;;;;;14.45;8.77;;;23.00;64.70;;;;;;4874606;29;20546;-70
2023/01/03 13:06:22;;;;;;;9.73;7.60;;;22.90;66.90;;;;;;4874364;29;20097;-70
2023/01/03 13:08:56;;;;;;;11.35;8.23;;;23.00;68.60;;;;;;4874577;29;20788;-70
2023/01/03 13:11:33;;;;;;;11.38;8.25;;;22.90;68.20;;;;;;4930782;29;20047;-71
2023/01/03 13:14:14;;;;;;;13.93;9.10;;;22.90;67.70;;;;;;4958945;28;20089;-71
2023/01/03 13:16:47;;;;;;;15.25;9.85;;;22.90;66.80;;;;;;5015440;28;20045;-72
2023/01/03 13:19:19;;;;;;;13.65;8.82;;;23.00;63.00;;;;;;5011845;28;20471;-71
2023/01/03 13:21:54;;;;;;;13.32;9.10;;;23.00;64.60;;;;;;5062654;28;20044;-71
2023/01/03 13:24:40;;;;;;;12.93;9.70;;;22.80;62.20;;;;;;5091029;28;20497;-70
2023/01/03 13:27:24;;;;;;;12.02;9.55;;;22.90;64.20;;;;;;5076651;28;20036;-71
2023/01/03 13:29:57;;;;;;;13.40;9.50;;;22.80;63.00;;;;;;5069743;28;20416;-72
2023/01/03 13:32:23;;;;;;;18.00;10.70;;;22.80;63.00;;;;;;5070933;28;20085;-72
2023/01/03 13:34:55;;;;;;;17.67;11.98;;;22.90;63.00;;;;;;5070789;28;20067;-71
2023/01/03 13:37:22;;;;;;;18.42;11.23;;;22.70;62.70;;;;;;5070528;28;20036;-72
2023/01/03 13:39:51;;;;;;;21.05;12.13;;;22.70;62.70;;;;;;5070404;28;20115;-72
2023/01/03 13:42:33;;;;;;;17.98;11.93;;;22.70;62.50;;;;;;5070606;28;20125;-72
2023/01/03 13:45:16;;;;;;;15.73;10.40;;;22.70;62.40;;;;;;5070489;28;20529;-72
2023/01/03 13:47:44;;;;;;;18.60;11.15;;;22.70;62.10;;;;;;5069741;28;20028;-72
2023/01/03 13:50:32;;;;;;;19.00;12.05;;;22.70;61.80;;;;;;5070522;28;20474;-72
2023/01/03 13:53:03;;;;;;;17.83;11.38;;;22.70;61.70;;;;;;5070621;28;20033;-71